createdAt,value
2022-09-12T00:00:13.680Z,100.00
2022-09-12T00:02:40.246Z,100.00
2022-09-12T00:05:07.434Z,100.00
2022-09-12T00:07:34.580Z,100.00
2022-09-12T00:10:01.232Z,100.00
2022-09-12T00:12:27.949Z,100.00
2022-09-12T00:14:54.767Z,100.00
2022-09-12T00:17:21.388Z,100.00
2022-09-12T00:19:48.265Z,100.00
2022-09-12T00:22:14.858Z,100.00
2022-09-12T00:24:41.632Z,100.00
2022-09-12T00:27:08.331Z,100.00
2022-09-12T00:29:35.737Z,100.00
2022-09-12T00:32:02.574Z,100.00
2022-09-12T00:34:29.232Z,100.00
2022-09-12T00:36:55.964Z,100.00
2022-09-12T00:39:22.609Z,100.00
2022-09-12T00:41:49.305Z,100.00
2022-09-12T00:44:16.015Z,100.00
2022-09-12T00:46:48.095Z,100.00
2022-09-12T00:49:16.254Z,100.00
2022-09-12T00:51:48.235Z,100.00
2022-09-12T00:54:19.664Z,100.00
2022-09-12T00:56:47.418Z,100.00
2022-09-12T00:59:47.016Z,100.00
2022-09-12T01:02:13.798Z,100.00
2022-09-12T01:04:41.297Z,100.00
2022-09-12T01:07:08.704Z,100.00
2022-09-12T01:09:37.077Z,100.00
2022-09-12T01:12:04.249Z,100.00
2022-09-12T01:14:31.598Z,100.00
2022-09-12T01:16:58.413Z,100.00
2022-09-12T01:19:54.682Z,100.00
2022-09-12T01:22:43.562Z,100.00
2022-09-12T01:25:28.671Z,100.00
2022-09-12T01:28:31.725Z,100.00
2022-09-12T01:31:08.398Z,100.00
2022-09-12T01:34:13.059Z,100.00
2022-09-12T01:37:04.442Z,100.00
2022-09-12T01:39:43.770Z,100.00
2022-09-12T01:42:32.426Z,100.00
2022-09-12T01:45:14.458Z,100.00
2022-09-12T01:47:45.705Z,100.00
2022-09-12T01:50:20.091Z,100.00
2022-09-12T01:52:57.514Z,100.00
2022-09-12T01:55:28.433Z,100.00
2022-09-12T01:57:59.475Z,100.00
2022-09-12T02:00:26.535Z,100.00
2022-09-12T02:03:03.147Z,100.00
2022-09-12T02:05:33.902Z,100.00
2022-09-12T02:08:25.042Z,100.00
2022-09-12T02:11:10.584Z,100.00
2022-09-12T02:13:37.408Z,100.00
2022-09-12T02:16:10.605Z,100.00
2022-09-12T02:18:45.723Z,100.00
2022-09-12T02:21:12.967Z,100.00
2022-09-12T02:23:43.467Z,100.00
2022-09-12T02:26:19.505Z,100.00
2022-09-12T02:28:47.572Z,100.00
2022-09-12T02:31:23.329Z,100.00
2022-09-12T02:33:59.387Z,100.00
2022-09-12T02:36:26.968Z,100.00
2022-09-12T02:38:53.667Z,100.00
2022-09-12T02:41:21.023Z,100.00
2022-09-12T02:43:48.428Z,100.00
2022-09-12T02:46:39.508Z,100.00
2022-09-12T02:49:07.373Z,100.00
2022-09-12T02:51:35.951Z,100.00
2022-09-12T02:54:03.574Z,100.00
2022-09-12T02:56:31.135Z,100.00
2022-09-12T02:59:02.651Z,100.00
2022-09-12T03:01:46.364Z,100.00
2022-09-12T03:04:46.367Z,100.00
2022-09-12T03:07:21.703Z,100.00
2022-09-12T03:10:07.138Z,100.00
2022-09-12T03:13:11.257Z,100.00
2022-09-12T03:15:48.428Z,100.00
2022-09-12T03:18:31.765Z,100.00
2022-09-12T03:21:11.745Z,100.00
2022-09-12T03:23:47.783Z,100.00
2022-09-12T03:26:21.305Z,100.00
2022-09-12T03:28:49.684Z,100.00
2022-09-12T03:31:18.617Z,100.00
2022-09-12T03:33:45.905Z,100.00
2022-09-12T03:36:31.526Z,100.00
2022-09-12T03:38:58.335Z,100.00
2022-09-12T03:41:25.082Z,100.00
2022-09-12T03:43:52.022Z,100.00
2022-09-12T03:46:18.726Z,100.00
2022-09-12T03:48:46.068Z,100.00
2022-09-12T03:51:13.019Z,100.00
2022-09-12T03:53:39.739Z,100.00
2022-09-12T03:56:08.598Z,100.00
2022-09-12T03:58:36.427Z,100.00
2022-09-12T04:01:12.627Z,100.00
2022-09-12T04:03:40.609Z,100.00
2022-09-12T04:06:08.230Z,100.00
2022-09-12T04:08:38.533Z,100.00
2022-09-12T04:11:07.088Z,100.00
2022-09-12T04:13:35.227Z,100.00
2022-09-12T04:16:02.190Z,100.00
2022-09-12T04:18:28.893Z,100.00
2022-09-12T04:20:55.592Z,100.00
2022-09-12T04:23:22.445Z,100.00
2022-09-12T04:25:56.873Z,100.00
2022-09-12T04:28:24.925Z,100.00
2022-09-12T04:30:52.116Z,100.00
2022-09-12T04:33:18.949Z,100.00
2022-09-12T04:35:45.617Z,100.00
2022-09-12T04:38:12.371Z,100.00
2022-09-12T04:40:39.085Z,100.00
2022-09-12T04:43:09.231Z,100.00
2022-09-12T04:45:37.995Z,100.00
2022-09-12T04:48:04.904Z,100.00
2022-09-12T04:50:31.592Z,100.00
2022-09-12T04:52:58.251Z,100.00
2022-09-12T04:55:25.393Z,100.00
2022-09-12T04:57:53.019Z,100.00
2022-09-12T05:00:20.769Z,100.00
2022-09-12T05:02:47.743Z,100.00
2022-09-12T05:05:14.450Z,100.00
2022-09-12T05:07:41.205Z,100.00
2022-09-12T05:10:09.456Z,100.00
2022-09-12T05:12:36.820Z,100.00
2022-09-12T05:15:04.692Z,100.00
2022-09-12T05:17:31.364Z,100.00
2022-09-12T05:19:58.131Z,100.00
2022-09-12T05:22:25.490Z,100.00
2022-09-12T05:24:52.166Z,100.00
2022-09-12T05:27:18.855Z,100.00
2022-09-12T05:29:45.642Z,100.00
2022-09-12T05:32:12.541Z,100.00
2022-09-12T05:34:40.331Z,100.00
2022-09-12T05:37:07.020Z,100.00
2022-09-12T05:39:33.808Z,100.00
2022-09-12T05:42:00.510Z,100.00
2022-09-12T05:44:27.149Z,100.00
2022-09-12T05:46:53.861Z,100.00
2022-09-12T05:49:21.610Z,100.00
2022-09-12T05:51:48.508Z,100.00
2022-09-12T05:54:18.238Z,100.00
2022-09-12T05:56:45.457Z,100.00
2022-09-12T05:59:20.833Z,100.00
2022-09-12T06:01:48.853Z,100.00
2022-09-12T06:04:16.037Z,100.00
2022-09-12T06:06:47.448Z,100.00
2022-09-12T06:09:16.100Z,100.00
2022-09-12T06:11:43.643Z,100.00
2022-09-12T06:14:12.285Z,100.00
2022-09-12T06:16:39.402Z,100.00
2022-09-12T06:19:32.331Z,100.00
2022-09-12T06:21:58.954Z,100.00
2022-09-12T06:24:25.833Z,100.00
2022-09-12T06:26:55.314Z,100.00
2022-09-12T06:29:23.133Z,100.00
2022-09-12T06:31:49.901Z,100.00
2022-09-12T06:34:16.812Z,100.00
2022-09-12T06:36:48.122Z,100.00
2022-09-12T06:39:17.523Z,100.00
2022-09-12T06:41:44.904Z,100.00
2022-09-12T06:46:48.068Z,100.00
2022-09-12T06:49:15.676Z,100.00
2022-09-12T06:51:42.915Z,100.00
2022-09-12T06:54:14.869Z,100.00
2022-09-12T06:56:41.870Z,100.00
2022-09-12T06:59:08.863Z,100.00
2022-09-12T07:01:35.630Z,100.00
2022-09-12T07:04:03.945Z,100.00
2022-09-12T07:06:39.982Z,100.00
2022-09-12T07:09:10.589Z,100.00
2022-09-12T07:11:38.965Z,100.00
2022-09-12T07:14:07.430Z,100.00
2022-09-12T07:16:37.303Z,100.00
2022-09-12T07:19:05.828Z,86.07
2022-09-12T07:21:33.005Z,79.27
2022-09-12T07:24:00.036Z,76.29
2022-09-12T07:26:28.119Z,73.67
2022-09-12T07:29:03.981Z,70.51
2022-09-12T07:31:40.067Z,78.32
2022-09-12T07:34:06.912Z,75.51
2022-09-12T07:36:34.356Z,80.06
2022-09-12T07:39:01.653Z,86.15
2022-09-12T07:41:30.517Z,76.31
2022-09-12T07:43:59.157Z,78.01
2022-09-12T07:46:28.216Z,83.65
2022-09-12T07:48:58.075Z,89.56
2022-09-12T07:51:26.200Z,97.38
2022-09-12T07:53:53.079Z,100.00
2022-09-12T07:56:22.010Z,100.00
2022-09-12T07:58:50.045Z,100.00
2022-09-12T08:01:19.420Z,100.00
2022-09-12T08:03:50.713Z,100.00
2022-09-12T08:06:24.570Z,100.00
2022-09-12T08:08:52.699Z,100.00
2022-09-12T08:11:20.832Z,100.00
2022-09-12T08:13:52.960Z,98.87
2022-09-12T08:16:23.100Z,97.59
2022-09-12T08:18:50.699Z,99.37
2022-09-12T08:21:26.213Z,100.00
2022-09-12T08:23:55.533Z,99.29
2022-09-12T08:26:23.498Z,100.00
2022-09-12T08:28:51.284Z,100.00
2022-09-12T08:31:21.626Z,100.00
2022-09-12T08:33:48.491Z,100.00
2022-09-12T08:36:17.657Z,100.00
2022-09-12T08:38:46.431Z,100.00
2022-09-12T08:41:25.142Z,100.00
2022-09-12T08:44:03.566Z,100.00
2022-09-12T08:46:39.203Z,96.58
2022-09-12T08:49:10.286Z,97.33
2022-09-12T08:51:38.287Z,100.00
2022-09-12T08:54:10.074Z,94.43
2022-09-12T08:56:37.895Z,100.00
2022-09-12T08:59:04.694Z,100.00
2022-09-12T09:01:35.829Z,100.00
2022-09-12T09:04:41.676Z,98.77
2022-09-12T09:07:39.434Z,93.69
2022-09-12T09:10:26.703Z,95.70
2022-09-12T09:13:08.069Z,91.16
2022-09-12T09:15:58.524Z,94.83
2022-09-12T09:18:29.038Z,91.56
2022-09-12T09:21:03.763Z,89.51
2022-09-12T09:23:34.637Z,93.30
2022-09-12T09:26:09.601Z,91.13
2022-09-12T09:28:43.593Z,88.91
2022-09-12T09:31:21.846Z,91.00
2022-09-12T09:33:55.459Z,91.42
2022-09-12T09:36:40.663Z,89.31
2022-09-12T09:39:13.567Z,90.89
2022-09-12T09:42:10.433Z,90.40
2022-09-12T09:44:37.600Z,90.71
2022-09-12T09:47:05.331Z,85.55
2022-09-12T09:49:34.700Z,89.67
2022-09-12T09:52:02.135Z,90.82
2022-09-12T09:54:41.949Z,90.41
2022-09-12T09:57:37.086Z,89.79
2022-09-12T10:00:28.122Z,90.16
2022-09-12T10:03:13.938Z,85.53
2022-09-12T10:05:51.721Z,83.51
2022-09-12T10:08:27.814Z,83.39
2022-09-12T10:11:08.862Z,81.86
2022-09-12T10:13:39.230Z,81.84
2022-09-12T10:16:18.973Z,84.63
2022-09-12T10:18:46.094Z,84.11
2022-09-12T10:21:14.438Z,82.20
2022-09-12T10:23:42.217Z,81.13
2022-09-12T10:26:11.413Z,79.64
2022-09-12T10:28:51.705Z,81.63
2022-09-12T10:31:28.927Z,79.36
2022-09-12T10:33:57.957Z,77.45
2022-09-12T10:36:25.351Z,76.44
2022-09-12T10:38:55.073Z,77.19
2022-09-12T10:41:24.597Z,77.44
2022-09-12T10:43:51.551Z,77.02
2022-09-12T10:46:18.329Z,74.20
2022-09-12T10:48:49.818Z,76.20
2022-09-12T10:51:25.818Z,73.56
2022-09-12T10:54:03.424Z,71.00
2022-09-12T10:56:36.959Z,69.38
2022-09-12T10:59:22.338Z,69.28
2022-09-12T11:01:53.212Z,76.38
2022-09-12T11:04:46.409Z,72.80
2022-09-12T11:07:58.197Z,70.62
2022-09-12T11:11:00.533Z,67.25
2022-09-12T11:13:51.413Z,72.19
2022-09-12T11:16:27.661Z,72.39
2022-09-12T11:19:11.136Z,71.84
2022-09-12T11:22:22.350Z,67.43
2022-09-12T11:25:05.122Z,71.73
2022-09-12T11:27:54.035Z,71.88
2022-09-12T11:30:20.933Z,70.89
2022-09-12T11:33:08.190Z,69.31
2022-09-12T11:35:57.568Z,64.95
2022-09-12T11:38:43.203Z,65.50
2022-09-12T11:41:11.918Z,66.99
2022-09-12T11:43:41.889Z,67.79
2022-09-12T11:46:17.330Z,59.36
2022-09-12T11:49:17.526Z,59.14
2022-09-12T11:51:59.701Z,56.28
2022-09-12T11:54:49.114Z,61.31
2022-09-12T11:57:28.025Z,60.08
2022-09-12T12:00:10.159Z,61.21
2022-09-12T12:02:43.789Z,58.33
2022-09-12T12:05:26.813Z,60.58
2022-09-12T12:07:58.872Z,59.91
2022-09-12T12:10:48.828Z,56.77
2022-09-12T12:13:15.643Z,57.03
2022-09-12T12:15:51.843Z,64.42
2022-09-12T12:18:23.210Z,61.54
2022-09-12T12:20:51.009Z,63.64
2022-09-12T12:23:35.341Z,60.93
2022-09-12T12:26:04.762Z,56.05
2022-09-12T12:28:50.394Z,55.87
2022-09-12T12:31:18.571Z,55.04
2022-09-12T12:33:45.293Z,54.86
2022-09-12T12:36:41.898Z,56.29
2022-09-12T12:39:32.077Z,58.98
2022-09-12T12:41:59.907Z,60.57
2022-09-12T12:44:45.113Z,58.16
2022-09-12T12:47:18.067Z,59.38
2022-09-12T12:49:52.009Z,55.54
2022-09-12T12:52:19.384Z,53.71
2022-09-12T12:54:46.365Z,54.33
2022-09-12T12:57:13.055Z,54.50
2022-09-12T12:59:48.145Z,55.03
2022-09-12T13:02:23.382Z,55.72
2022-09-12T13:04:50.515Z,53.80
2022-09-12T13:07:30.371Z,53.19
2022-09-12T13:09:57.936Z,53.13
2022-09-12T13:12:28.474Z,54.49
2022-09-12T13:15:00.592Z,55.22
2022-09-12T13:17:40.189Z,53.17
2022-09-12T13:20:30.881Z,55.22
2022-09-12T13:22:58.250Z,54.38
2022-09-12T13:25:28.307Z,53.24
2022-09-12T13:28:06.339Z,52.79
2022-09-12T13:30:42.524Z,53.89
2022-09-12T13:33:41.716Z,54.54
2022-09-12T13:36:14.667Z,55.59
2022-09-12T13:38:58.098Z,56.13
2022-09-12T13:41:43.037Z,55.00
2022-09-12T13:44:13.291Z,56.20
2022-09-12T13:46:40.543Z,56.83
2022-09-12T13:49:24.032Z,56.26
2022-09-12T13:52:15.108Z,56.63
2022-09-12T13:54:44.926Z,58.30
2022-09-12T13:57:33.578Z,56.06
2022-09-12T14:00:02.098Z,55.60
2022-09-12T14:02:35.462Z,57.87
2022-09-12T14:05:12.155Z,55.14
2022-09-12T14:07:55.235Z,56.03
2022-09-12T14:10:28.229Z,57.62
2022-09-12T14:12:57.292Z,56.13
2022-09-12T14:15:27.215Z,55.84
2022-09-12T14:17:57.904Z,57.30
2022-09-12T14:20:26.548Z,59.26
2022-09-12T14:22:53.451Z,57.60
2022-09-12T14:25:22.843Z,54.62
2022-09-12T14:27:54.460Z,56.24
2022-09-12T14:30:33.297Z,56.23
2022-09-12T14:33:18.339Z,56.40
2022-09-12T14:35:49.787Z,56.03
2022-09-12T14:38:16.540Z,56.81
2022-09-12T14:40:51.130Z,58.61
2022-09-12T14:43:26.503Z,55.55
2022-09-12T14:46:06.402Z,55.60
2022-09-12T14:48:36.703Z,54.21
2022-09-12T14:51:04.180Z,53.33
2022-09-12T14:53:33.867Z,54.22
2022-09-12T14:56:09.580Z,54.49
2022-09-12T14:58:37.461Z,54.73
2022-09-12T15:01:07.371Z,53.84
2022-09-12T15:03:47.361Z,51.46
2022-09-12T15:06:39.791Z,54.49
2022-09-12T15:09:09.130Z,55.41
2022-09-12T15:11:35.835Z,56.12
2022-09-12T15:14:29.013Z,54.03
2022-09-12T15:16:55.782Z,53.99
2022-09-12T15:19:22.664Z,54.49
2022-09-12T15:21:49.317Z,54.59
2022-09-12T15:24:16.017Z,52.14
2022-09-12T15:26:42.779Z,54.07
2022-09-12T15:29:11.479Z,54.15
2022-09-12T15:31:40.289Z,51.06
2022-09-12T15:34:07.004Z,50.68
2022-09-12T15:36:33.907Z,50.61
2022-09-12T15:39:00.684Z,51.00
2022-09-12T15:41:32.092Z,49.33
2022-09-12T15:43:59.164Z,47.94
2022-09-12T15:46:26.213Z,51.27
2022-09-12T15:48:53.063Z,50.75
2022-09-12T15:51:22.079Z,50.74
2022-09-12T15:53:50.495Z,52.11
2022-09-12T15:56:18.857Z,51.02
2022-09-12T15:58:58.379Z,51.80
2022-09-12T16:01:26.499Z,50.67
2022-09-12T16:03:53.318Z,50.20
2022-09-12T16:06:20.043Z,51.41
2022-09-12T16:08:46.821Z,51.35
2022-09-12T16:11:27.085Z,49.75
2022-09-12T16:13:54.565Z,49.60
2022-09-12T16:16:21.673Z,50.77
2022-09-12T16:18:48.494Z,51.66
2022-09-12T16:21:15.983Z,50.58
2022-09-12T16:23:52.121Z,49.19
2022-09-12T16:26:19.645Z,49.05
2022-09-12T16:28:46.517Z,49.93
2022-09-12T16:31:14.239Z,49.81
2022-09-12T16:33:42.261Z,50.07
2022-09-12T16:36:13.047Z,52.52
2022-09-12T16:41:37.575Z,54.79
2022-09-12T16:44:07.434Z,54.30
2022-09-12T16:46:35.005Z,55.78
2022-09-12T16:49:02.252Z,56.42
2022-09-12T16:51:36.421Z,57.18
2022-09-12T16:54:08.852Z,58.24
2022-09-12T16:56:39.167Z,56.61
2022-09-12T16:59:09.385Z,56.08
2022-09-12T17:01:40.018Z,56.54
2022-09-12T17:04:07.748Z,58.96
2022-09-12T17:06:35.450Z,60.90
2022-09-12T17:09:04.357Z,60.70
2022-09-12T17:11:37.479Z,60.86
2022-09-12T17:14:07.092Z,59.89
2022-09-12T17:16:36.908Z,59.68
2022-09-12T17:19:06.240Z,57.93
2022-09-12T17:21:34.235Z,59.10
2022-09-12T17:24:01.491Z,59.23
2022-09-12T17:26:28.534Z,60.29
2022-09-12T17:28:55.366Z,62.36
2022-09-12T17:31:22.643Z,63.98
2022-09-12T17:33:49.906Z,62.83
2022-09-12T17:36:18.074Z,61.46
2022-09-12T17:38:46.418Z,60.24
2022-09-12T17:41:18.666Z,63.28
2022-09-12T17:43:47.780Z,61.54
2022-09-12T17:46:14.800Z,63.38
2022-09-12T17:48:41.979Z,62.57
2022-09-12T17:51:13.957Z,61.64
2022-09-12T17:53:42.213Z,58.97
2022-09-12T17:56:10.466Z,66.92
2022-09-12T17:58:39.058Z,66.45
2022-09-12T18:01:25.827Z,67.06
2022-09-12T18:03:56.906Z,67.72
2022-09-12T18:06:24.707Z,68.19
2022-09-12T18:08:51.781Z,68.89
2022-09-12T18:11:20.241Z,71.32
2022-09-12T18:13:46.993Z,72.45
2022-09-12T18:16:14.312Z,74.19
2022-09-12T18:18:41.279Z,76.98
2022-09-12T18:21:09.002Z,77.96
2022-09-12T18:23:35.983Z,79.33
2022-09-12T18:26:06.320Z,78.50
2022-09-12T18:28:34.243Z,78.55
2022-09-12T18:31:01.808Z,79.83
2022-09-12T18:33:28.665Z,78.87
2022-09-12T18:35:55.297Z,75.88
2022-09-12T18:38:22.732Z,76.63
2022-09-12T18:40:49.519Z,80.85
2022-09-12T18:43:16.376Z,83.53
2022-09-12T18:45:44.492Z,85.64
2022-09-12T18:48:12.736Z,85.57
2022-09-12T18:50:39.330Z,87.96
2022-09-12T18:53:06.077Z,89.55
2022-09-12T18:55:33.279Z,90.12
2022-09-12T18:58:00.513Z,89.77
2022-09-12T19:00:27.416Z,92.16
2022-09-12T19:02:54.397Z,92.80
2022-09-12T19:05:21.620Z,93.20
2022-09-12T19:07:48.389Z,94.34
2022-09-12T19:10:15.460Z,95.33
2022-09-12T19:12:42.220Z,95.90
2022-09-12T19:15:10.029Z,96.26
2022-09-12T19:17:39.815Z,96.65
2022-09-12T19:20:06.809Z,98.29
2022-09-12T19:22:33.672Z,99.29
2022-09-12T19:25:00.371Z,98.53
2022-09-12T19:27:27.775Z,97.65
2022-09-12T19:29:57.065Z,97.45
2022-09-12T19:32:23.968Z,98.58
2022-09-12T19:34:52.218Z,98.70
2022-09-12T19:37:19.094Z,98.91
2022-09-12T19:39:47.100Z,98.71
2022-09-12T19:42:14.338Z,99.84
2022-09-12T19:44:41.133Z,100.00
2022-09-12T19:47:09.474Z,100.00
2022-09-12T19:49:37.329Z,100.00
2022-09-12T19:52:04.122Z,100.00
2022-09-12T19:54:31.016Z,100.00
2022-09-12T19:56:58.215Z,100.00
2022-09-12T19:59:25.273Z,100.00
2022-09-12T20:01:56.897Z,100.00
2022-09-12T20:04:23.843Z,100.00
2022-09-12T20:06:51.392Z,100.00
2022-09-12T20:09:18.051Z,100.00
2022-09-12T20:11:45.001Z,100.00
2022-09-12T20:14:12.128Z,100.00
2022-09-12T20:16:42.138Z,100.00
2022-09-12T20:19:10.550Z,100.00
2022-09-12T20:21:37.884Z,100.00
2022-09-12T20:24:09.457Z,100.00
2022-09-12T20:26:39.721Z,100.00
2022-09-12T20:29:06.866Z,100.00
2022-09-12T20:31:35.099Z,100.00
2022-09-12T20:34:04.012Z,100.00
2022-09-12T20:36:30.825Z,100.00
2022-09-12T20:39:00.180Z,100.00
2022-09-12T20:41:29.675Z,100.00
2022-09-12T20:43:57.364Z,100.00
2022-09-12T20:46:25.467Z,100.00
2022-09-12T20:48:52.551Z,100.00
2022-09-12T20:51:21.756Z,100.00
2022-09-12T20:53:49.046Z,100.00
2022-09-12T20:56:15.961Z,100.00
2022-09-12T20:58:44.288Z,100.00
2022-09-12T21:01:12.374Z,100.00
2022-09-12T21:03:45.569Z,100.00
2022-09-12T21:06:13.774Z,100.00
2022-09-12T21:08:40.848Z,100.00
2022-09-12T21:11:07.727Z,100.00
2022-09-12T21:13:39.737Z,100.00
2022-09-12T21:16:17.716Z,100.00
2022-09-12T21:18:45.040Z,100.00
2022-09-12T21:21:14.618Z,100.00
2022-09-12T21:23:41.954Z,100.00
2022-09-12T21:26:08.901Z,100.00
2022-09-12T21:28:35.657Z,100.00
2022-09-12T21:31:02.424Z,100.00
2022-09-12T21:33:29.521Z,100.00
2022-09-12T21:36:01.914Z,100.00
2022-09-12T21:38:28.865Z,100.00
2022-09-12T21:41:09.991Z,100.00
2022-09-12T21:43:37.751Z,100.00
2022-09-12T21:46:05.382Z,100.00
2022-09-12T21:48:32.190Z,100.00
2022-09-12T21:51:00.681Z,100.00
2022-09-12T21:53:27.479Z,100.00
2022-09-12T21:55:54.365Z,100.00
2022-09-12T21:58:21.161Z,100.00
2022-09-12T22:00:49.430Z,100.00
2022-09-12T22:03:17.222Z,100.00
2022-09-12T22:05:44.611Z,100.00
2022-09-12T22:08:11.572Z,100.00
2022-09-12T22:10:42.208Z,100.00
2022-09-12T22:13:09.923Z,100.00
2022-09-12T22:15:40.952Z,100.00
2022-09-12T22:18:08.171Z,100.00
2022-09-12T22:20:34.994Z,100.00
2022-09-12T22:23:24.549Z,100.00
2022-09-12T22:25:54.504Z,100.00
2022-09-12T22:28:22.348Z,100.00
2022-09-12T22:30:49.917Z,100.00
2022-09-12T22:33:16.860Z,100.00
2022-09-12T22:35:44.230Z,100.00
2022-09-12T22:38:11.152Z,100.00
2022-09-12T22:40:38.452Z,100.00
2022-09-12T22:43:05.259Z,100.00
2022-09-12T22:45:32.083Z,100.00
2022-09-12T22:48:00.726Z,100.00
2022-09-12T22:50:28.637Z,100.00
2022-09-12T22:52:57.553Z,100.00
2022-09-12T22:55:24.668Z,100.00
2022-09-12T22:57:51.561Z,100.00
2022-09-12T23:00:19.465Z,100.00
2022-09-12T23:02:49.218Z,100.00
2022-09-12T23:05:16.150Z,100.00
2022-09-12T23:07:43.000Z,100.00
2022-09-12T23:10:10.658Z,100.00
2022-09-12T23:12:37.595Z,100.00
2022-09-12T23:15:04.974Z,100.00
2022-09-12T23:17:35.163Z,100.00
2022-09-12T23:20:02.885Z,100.00
2022-09-12T23:22:29.738Z,100.00
2022-09-12T23:24:56.503Z,100.00
2022-09-12T23:27:23.424Z,100.00
2022-09-12T23:29:52.486Z,100.00
2022-09-12T23:32:20.137Z,100.00
2022-09-12T23:34:48.421Z,100.00
2022-09-12T23:37:15.780Z,100.00
2022-09-12T23:39:42.758Z,100.00
2022-09-12T23:42:09.589Z,100.00
2022-09-12T23:44:36.271Z,100.00
2022-09-12T23:47:03.486Z,100.00
2022-09-12T23:49:30.337Z,100.00
2022-09-12T23:51:57.634Z,100.00
2022-09-12T23:54:25.384Z,100.00
2022-09-12T23:56:52.496Z,100.00
2022-09-12T23:59:19.381Z,100.00
